Time;durP1;ratioP1;P1;durP2;ratioP2;P2;SDS_P1;SDS_P2;PMS_P1;PMS_P2;Temp;Humidity;BMP_temperature;BMP_pressure;BME280_temperature;BME280_humidity;BME280_pressure;Samples;Min_cycle;Max_cycle;Signal;HPM_P1;HPM_P2
2022/05/11 00:01:31;;;;;;;2.08;1.00;;;;;21.90;101185.00;;;;5084093;28;20365;-78
2022/05/11 00:03:59;;;;;;;1.88;0.90;;;;;21.90;101176.00;;;;5084897;28;20416;-78
2022/05/11 00:06:28;;;;;;;2.05;1.17;;;;;21.90;101178.00;;;;5086795;28;20194;-79
2022/05/11 00:08:56;;;;;;;3.45;0.63;;;;;21.90;101177.00;;;;5086938;28;20206;-78
2022/05/11 00:11:27;;;;;;;3.33;1.00;;;;;21.80;101181.00;;;;5079762;28;20600;-78
2022/05/11 00:13:55;;;;;;;2.15;1.00;;;;;21.80;101175.00;;;;5078826;28;20206;-78
2022/05/11 00:16:23;;;;;;;2.70;0.90;;;;;21.80;101164.00;;;;5086936;28;20195;-78
2022/05/11 00:18:51;;;;;;;2.20;1.00;;;;;21.80;101170.00;;;;5089082;28;20723;-78
2022/05/11 00:21:18;;;;;;;1.95;1.20;;;;;21.80;101167.00;;;;5084070;28;20240;-78
2022/05/11 00:23:45;;;;;;;1.88;0.88;;;;;21.80;101163.00;;;;5087022;28;20728;-78
2022/05/11 00:26:16;;;;;;;2.40;1.25;;;;;21.80;101150.00;;;;5079716;28;20230;-78
2022/05/11 00:28:45;;;;;;;3.00;0.80;;;;;21.80;101148.00;;;;5080378;28;20637;-78
2022/05/11 00:31:12;;;;;;;3.70;1.08;;;;;21.80;101144.00;;;;5082562;28;20955;-78
2022/05/11 00:33:40;;;;;;;1.63;0.75;;;;;21.70;101133.00;;;;5077905;28;20199;-78
2022/05/11 00:36:10;;;;;;;1.27;1.10;;;;;21.70;101130.00;;;;5082151;28;20217;-79
2022/05/11 00:38:38;;;;;;;2.28;1.10;;;;;21.70;101133.00;;;;5080054;28;20194;-78
2022/05/11 00:41:05;;;;;;;2.47;1.17;;;;;21.70;101130.00;;;;5075789;28;20238;-78
2022/05/11 00:43:35;;;;;;;1.27;0.77;;;;;21.70;101135.00;;;;5081773;28;20282;-78
2022/05/11 00:46:15;;;;;;;3.22;0.82;;;;;21.60;101133.00;;;;5076104;28;20198;-79
2022/05/11 00:51:34;;;;;;;1.77;0.88;;;;;21.60;101124.00;;;;5090393;28;20267;-78
2022/05/11 00:54:04;;;;;;;1.48;1.00;;;;;21.60;101120.00;;;;5084167;28;20443;-78
2022/05/11 00:56:32;;;;;;;1.30;0.73;;;;;21.60;101120.00;;;;5080442;28;20198;-78
2022/05/11 00:59:07;;;;;;;2.17;1.15;;;;;21.60;101116.00;;;;5080158;28;20194;-78
2022/05/11 01:01:36;;;;;;;1.92;1.45;;;;;21.60;101118.00;;;;5080988;28;20725;-78
2022/05/11 01:04:08;;;;;;;1.73;1.17;;;;;21.60;101118.00;;;;5069518;28;20210;-78
2022/05/11 01:06:36;;;;;;;2.83;1.45;;;;;21.60;101111.00;;;;5083106;28;20190;-78
2022/05/11 01:09:04;;;;;;;1.65;1.17;;;;;21.60;101111.00;;;;5086092;28;20245;-78
2022/05/11 01:11:33;;;;;;;2.20;1.20;;;;;21.50;101110.00;;;;5086145;28;21021;-78
2022/05/11 01:14:00;;;;;;;1.55;1.20;;;;;21.50;101103.00;;;;5069222;28;20195;-78
2022/05/11 01:16:31;;;;;;;2.97;1.67;;;;;21.50;101096.00;;;;5079002;28;20198;-78
2022/05/11 01:19:01;;;;;;;1.88;1.52;;;;;21.50;101096.00;;;;5087078;28;20190;-78
2022/05/11 01:21:39;;;;;;;2.17;1.35;;;;;21.50;101091.00;;;;5080026;28;20583;-78
2022/05/11 01:24:26;;;;;;;3.60;1.23;;;;;21.50;101093.00;;;;5088690;28;20244;-78
2022/05/11 01:26:54;;;;;;;5.53;1.38;;;;;21.50;101087.00;;;;5080719;28;20202;-78
2022/05/11 01:29:22;;;;;;;4.25;1.38;;;;;21.50;101083.00;;;;5077245;28;20196;-78
2022/05/11 01:31:49;;;;;;;2.10;1.60;;;;;21.50;101074.00;;;;5087890;28;20275;-78
2022/05/11 01:34:22;;;;;;;1.60;1.23;;;;;21.40;101081.00;;;;5078439;28;20255;-78
2022/05/11 01:36:55;;;;;;;3.95;1.45;;;;;21.50;101090.00;;;;5083226;28;20195;-78
2022/05/11 01:39:23;;;;;;;3.08;1.30;;;;;21.50;101088.00;;;;5073076;28;20317;-78
2022/05/11 01:41:54;;;;;;;2.00;1.20;;;;;21.40;101088.00;;;;5085597;28;20197;-78
2022/05/11 01:44:22;;;;;;;2.13;1.15;;;;;21.50;101076.00;;;;5088288;28;20208;-78
2022/05/11 01:46:53;;;;;;;2.85;1.80;;;;;21.40;101066.00;;;;5083974;28;20190;-78
2022/05/11 01:49:22;;;;;;;3.03;1.27;;;;;21.50;101066.00;;;;5068236;28;20276;-78
2022/05/11 01:51:50;;;;;;;1.95;1.17;;;;;21.50;101073.00;;;;5069257;28;20230;-78
2022/05/11 01:54:18;;;;;;;2.33;1.20;;;;;21.50;101070.00;;;;5068568;28;20206;-78
2022/05/11 01:56:46;;;;;;;1.98;1.50;;;;;21.50;101065.00;;;;5083345;28;20202;-78
2022/05/11 01:59:14;;;;;;;2.25;1.42;;;;;21.40;101061.00;;;;5086528;28;20205;-78
2022/05/11 02:01:41;;;;;;;1.88;1.40;;;;;21.50;101062.00;;;;5082221;28;20205;-78
2022/05/11 02:07:49;;;;;;;1.92;1.58;;;;;21.40;101063.00;;;;5088393;28;20194;-78
2022/05/11 02:09:43;;;;;;;3.17;1.35;;;;;21.40;101056.00;;;;5084451;28;20205;-78
2022/05/11 02:12:11;;;;;;;2.70;1.40;;;;;21.40;101058.00;;;;5077697;28;20214;-78
2022/05/11 02:14:40;;;;;;;2.15;1.33;;;;;21.40;101061.00;;;;5087796;28;20201;-78
2022/05/11 02:17:07;;;;;;;4.53;1.58;;;;;21.40;101059.00;;;;5086649;28;20285;-78
2022/05/11 02:19:35;;;;;;;2.70;1.42;;;;;21.40;101056.00;;;;5088233;28;20731;-78
2022/05/11 02:22:02;;;;;;;3.42;1.70;;;;;21.40;101059.00;;;;5084658;28;20206;-78
2022/05/11 02:24:30;;;;;;;2.15;1.30;;;;;21.40;101064.00;;;;5073575;28;20198;-78
2022/05/11 02:27:00;;;;;;;1.92;1.38;;;;;21.40;101060.00;;;;5085251;28;20198;-78
2022/05/11 02:29:28;;;;;;;2.30;1.67;;;;;21.40;101067.00;;;;5072085;28;20199;-78
2022/05/11 02:31:56;;;;;;;5.28;1.83;;;;;21.40;101062.00;;;;5083537;28;20218;-78
2022/05/11 02:37:08;;;;;;;3.78;1.52;;;;;21.40;101058.00;;;;5087042;28;20221;-78
2022/05/11 02:39:36;;;;;;;2.35;1.77;;;;;21.40;101062.00;;;;5088216;28;20234;-78
2022/05/11 02:42:03;;;;;;;2.55;1.50;;;;;21.40;101052.00;;;;5091371;28;20209;-78
2022/05/11 02:44:30;;;;;;;2.30;1.55;;;;;21.40;101061.00;;;;5081053;28;20656;-78
2022/05/11 02:46:59;;;;;;;2.05;1.35;;;;;21.40;101048.00;;;;5080152;28;20199;-78
2022/05/11 02:49:27;;;;;;;1.88;1.20;;;;;21.40;101051.00;;;;5086766;28;20215;-78
2022/05/11 02:51:54;;;;;;;1.80;1.45;;;;;21.40;101053.00;;;;5076524;28;20218;-78
2022/05/11 02:54:23;;;;;;;1.60;1.10;;;;;21.40;101042.00;;;;5091406;28;20610;-79
2022/05/11 02:56:50;;;;;;;3.75;1.58;;;;;21.40;101031.00;;;;5074944;28;20202;-78
2022/05/11 02:59:17;;;;;;;3.05;1.52;;;;;21.40;101034.00;;;;5085225;28;20206;-78
2022/05/11 03:01:45;;;;;;;2.10;1.48;;;;;21.40;101020.00;;;;5088591;28;20198;-79
2022/05/11 03:04:13;;;;;;;1.92;1.30;;;;;21.40;101031.00;;;;5089992;28;20205;-78
2022/05/11 03:06:42;;;;;;;2.17;1.30;;;;;21.40;101030.00;;;;5088793;28;20194;-78
2022/05/11 03:09:09;;;;;;;2.00;1.30;;;;;21.40;101023.00;;;;5085353;28;20195;-78
2022/05/11 03:11:37;;;;;;;2.35;1.02;;;;;21.40;101025.00;;;;5090595;28;20226;-78
2022/05/11 03:14:04;;;;;;;1.27;0.80;;;;;21.40;101013.00;;;;5091013;28;20205;-78
2022/05/11 03:16:31;;;;;;;3.03;1.23;;;;;21.40;101012.00;;;;5086439;28;20222;-78
2022/05/11 03:19:01;;;;;;;3.28;1.52;;;;;21.40;101012.00;;;;5090938;28;20198;-78
2022/05/11 03:21:30;;;;;;;3.55;1.35;;;;;21.30;101014.00;;;;5082286;28;20657;-78
2022/05/11 03:23:58;;;;;;;3.03;0.90;;;;;21.40;101010.00;;;;5091132;28;20213;-78
2022/05/11 03:26:25;;;;;;;5.38;1.48;;;;;21.30;101010.00;;;;5088265;28;20611;-78
2022/05/11 03:28:53;;;;;;;2.42;1.02;;;;;21.30;101004.00;;;;5086357;28;20206;-78
2022/05/11 03:31:21;;;;;;;1.85;0.95;;;;;21.40;101008.00;;;;5087294;28;20219;-78
2022/05/11 03:36:34;;;;;;;1.83;1.10;;;;;21.30;101009.00;;;;5084848;28;20232;-79
2022/05/11 03:39:02;;;;;;;2.47;1.08;;;;;21.30;101008.00;;;;5088355;28;20190;-78
2022/05/11 03:41:29;;;;;;;1.73;0.80;;;;;21.30;101009.00;;;;5089408;28;20305;-78
2022/05/11 03:43:56;;;;;;;1.38;0.88;;;;;21.30;101007.00;;;;5089447;28;20198;-78
2022/05/11 03:46:24;;;;;;;1.70;1.08;;;;;21.30;101003.00;;;;5086329;28;20202;-78
2022/05/11 03:48:51;;;;;;;1.65;0.90;;;;;21.30;101000.00;;;;5083648;28;20582;-78
2022/05/11 03:51:18;;;;;;;4.57;1.50;;;;;21.30;101000.00;;;;5084756;28;20600;-78
2022/05/11 03:53:47;;;;;;;3.67;1.35;;;;;21.30;101002.00;;;;5078797;28;20714;-78
2022/05/11 03:56:14;;;;;;;3.15;1.35;;;;;21.30;100997.00;;;;5080079;28;20653;-79
2022/05/11 03:58:41;;;;;;;1.45;0.77;;;;;21.30;100994.00;;;;5073343;28;20195;-78
2022/05/11 04:01:09;;;;;;;1.48;0.85;;;;;21.30;100989.00;;;;5080585;28;21230;-78
2022/05/11 04:03:36;;;;;;;1.67;0.85;;;;;21.30;100987.00;;;;5085809;28;20588;-78
2022/05/11 04:06:03;;;;;;;1.67;0.90;;;;;21.30;100988.00;;;;5089316;28;20203;-79
2022/05/11 04:08:30;;;;;;;1.88;0.77;;;;;21.30;100996.00;;;;5082895;28;20198;-78
2022/05/11 04:10:59;;;;;;;3.92;1.10;;;;;21.30;100992.00;;;;5088060;28;20226;-78
2022/05/11 04:13:27;;;;;;;1.55;0.68;;;;;21.30;100990.00;;;;5088756;28;20203;-78
2022/05/11 04:15:54;;;;;;;1.17;0.80;;;;;21.20;100989.00;;;;5089913;28;20687;-78
2022/05/11 04:18:22;;;;;;;0.88;0.60;;;;;21.30;100986.00;;;;5090984;28;20194;-79
2022/05/11 04:20:50;;;;;;;2.33;0.60;;;;;21.30;100984.00;;;;5070107;28;20203;-78
2022/05/11 04:23:17;;;;;;;4.07;1.08;;;;;21.30;100980.00;;;;5082767;28;20194;-78
2022/05/11 04:25:44;;;;;;;2.35;0.93;;;;;21.30;100987.00;;;;5089144;28;20194;-78
2022/05/11 04:28:14;;;;;;;1.60;0.50;;;;;21.20;100991.00;;;;5080447;28;20206;-79
2022/05/11 04:30:41;;;;;;;2.60;1.25;;;;;21.20;100984.00;;;;5077142;28;20209;-78
2022/05/11 04:33:09;;;;;;;3.33;0.60;;;;;21.20;100983.00;;;;5086108;28;20209;-78
2022/05/11 04:35:37;;;;;;;2.50;0.95;;;;;21.30;100988.00;;;;5087774;28;20206;-78
2022/05/11 04:38:06;;;;;;;1.75;0.95;;;;;21.30;100989.00;;;;5072768;28;20657;-78
2022/05/11 04:40:35;;;;;;;1.98;0.75;;;;;21.30;100970.00;;;;5088672;28;20237;-78
2022/05/11 04:43:08;;;;;;;2.42;0.80;;;;;21.20;100974.00;;;;5087367;28;20289;-79
2022/05/11 04:45:39;;;;;;;2.00;0.93;;;;;21.20;100976.00;;;;5086481;28;20277;-78
2022/05/11 04:48:07;;;;;;;1.85;0.65;;;;;21.30;100967.00;;;;5088755;28;20719;-78
2022/05/11 04:50:34;;;;;;;1.88;0.63;;;;;21.30;100975.00;;;;5085048;28;20210;-78
2022/05/11 04:53:01;;;;;;;4.57;0.85;;;;;21.30;100971.00;;;;5085169;28;20233;-79
2022/05/11 04:55:29;;;;;;;2.67;0.60;;;;;21.30;100978.00;;;;5085787;28;20285;-78
2022/05/11 04:57:56;;;;;;;1.20;0.52;;;;;21.30;100985.00;;;;5082228;28;20198;-78
2022/05/11 05:00:25;;;;;;;1.30;0.50;;;;;21.30;100978.00;;;;5073921;28;20213;-78
2022/05/11 05:02:54;;;;;;;1.70;0.52;;;;;21.30;100985.00;;;;5074972;28;20867;-78
2022/05/11 05:05:21;;;;;;;4.03;0.73;;;;;21.30;100984.00;;;;5085341;28;20190;-78
2022/05/11 05:07:49;;;;;;;0.90;0.45;;;;;21.30;100990.00;;;;5081340;28;20572;-79
2022/05/11 05:10:19;;;;;;;3.15;0.52;;;;;21.30;100989.00;;;;5085068;28;20688;-78
2022/05/11 05:12:46;;;;;;;1.52;0.47;;;;;21.30;100992.00;;;;5080460;28;20283;-78
2022/05/11 05:15:15;;;;;;;2.67;0.70;;;;;21.30;100989.00;;;;5085470;28;20202;-78
2022/05/11 05:17:43;;;;;;;1.85;0.50;;;;;21.40;100984.00;;;;5078722;28;20260;-78
2022/05/11 05:20:13;;;;;;;2.50;0.75;;;;;21.30;100982.00;;;;5076999;28;20191;-78
2022/05/11 05:22:41;;;;;;;1.45;0.30;;;;;21.40;100984.00;;;;5077349;28;20187;-78
2022/05/11 05:25:09;;;;;;;2.42;0.32;;;;;21.40;100998.00;;;;5088382;28;20194;-79
2022/05/11 05:27:36;;;;;;;0.93;0.47;;;;;21.40;100990.00;;;;5087184;28;20244;-79
2022/05/11 05:32:50;;;;;;;2.00;0.50;;;;;21.50;100993.00;;;;5081942;28;20322;-78
2022/05/11 05:35:20;;;;;;;2.72;0.60;;;;;21.50;100989.00;;;;5080555;28;20278;-77
2022/05/11 05:37:48;;;;;;;2.72;0.55;;;;;21.60;100998.00;;;;5078121;28;20271;-77
2022/05/11 05:40:15;;;;;;;1.95;0.43;;;;;21.60;100994.00;;;;5085882;28;20277;-78
2022/05/11 05:42:43;;;;;;;1.90;0.40;;;;;21.60;101007.00;;;;5083147;28;20213;-77
2022/05/11 05:45:11;;;;;;;3.08;0.55;;;;;21.60;101002.00;;;;5089160;28;20585;-77
2022/05/11 05:47:39;;;;;;;1.42;0.50;;;;;21.60;100992.00;;;;5084957;28;20355;-77
2022/05/11 05:50:08;;;;;;;2.60;0.30;;;;;21.70;101001.00;;;;5082658;28;22133;-77
2022/05/11 05:52:36;;;;;;;1.23;0.60;;;;;21.70;100997.00;;;;5080785;28;20214;-77
2022/05/11 05:55:04;;;;;;;2.15;0.75;;;;;21.70;100990.00;;;;5082367;28;20202;-78
2022/05/11 05:57:32;;;;;;;2.20;0.40;;;;;21.70;101004.00;;;;5084880;28;20673;-79
2022/05/11 06:00:00;;;;;;;2.20;0.45;;;;;21.80;101005.00;;;;5078067;28;20206;-78
2022/05/11 06:02:27;;;;;;;2.05;0.50;;;;;21.80;101010.00;;;;5072322;28;20199;-77
2022/05/11 06:04:55;;;;;;;2.38;0.60;;;;;21.90;101001.00;;;;5079640;28;20252;-76
2022/05/11 06:07:22;;;;;;;2.97;0.47;;;;;21.90;101009.00;;;;5081344;28;20201;-77
2022/05/11 06:09:51;;;;;;;0.90;0.45;;;;;22.00;101005.00;;;;5084149;28;20198;-77
2022/05/11 06:12:19;;;;;;;1.33;0.30;;;;;22.00;101003.00;;;;5083758;28;20224;-75
2022/05/11 06:14:46;;;;;;;1.35;0.25;;;;;22.00;101014.00;;;;5086983;28;20197;-75
2022/05/11 06:17:15;;;;;;;1.23;0.35;;;;;22.10;101001.00;;;;5088265;28;20190;-76
2022/05/11 06:19:43;;;;;;;2.03;0.40;;;;;22.10;100998.00;;;;5088706;28;20660;-75
2022/05/11 06:22:10;;;;;;;0.85;0.40;;;;;22.10;101010.00;;;;5082937;28;20206;-76
2022/05/11 06:24:38;;;;;;;2.55;0.47;;;;;22.10;101010.00;;;;5089260;28;20331;-75
2022/05/11 06:27:07;;;;;;;1.00;0.30;;;;;22.10;100997.00;;;;5082957;28;20195;-76
2022/05/11 06:29:34;;;;;;;1.42;0.40;;;;;22.10;100990.00;;;;5087328;28;20202;-75
2022/05/11 06:32:02;;;;;;;3.50;0.93;;;;;22.20;100992.00;;;;5085221;28;20337;-76
2022/05/11 06:34:29;;;;;;;2.70;0.47;;;;;22.20;100982.00;;;;5088270;28;20199;-76
2022/05/11 06:36:56;;;;;;;4.65;0.60;;;;;22.20;100990.00;;;;5086923;28;20202;-77
2022/05/11 06:39:24;;;;;;;2.85;0.50;;;;;22.20;100985.00;;;;5085737;28;20278;-77
2022/05/11 06:41:51;;;;;;;1.48;0.40;;;;;22.30;100983.00;;;;5087060;28;20194;-77
2022/05/11 06:44:20;;;;;;;1.48;0.38;;;;;22.30;100999.00;;;;5077560;28;20206;-77
2022/05/11 06:46:47;;;;;;;1.42;0.73;;;;;22.40;100979.00;;;;5079870;28;20190;-77
2022/05/11 06:49:14;;;;;;;1.52;0.40;;;;;22.40;100985.00;;;;5090311;28;20216;-77
2022/05/11 06:51:42;;;;;;;2.00;0.40;;;;;22.50;100985.00;;;;5088026;28;20229;-78
2022/05/11 06:59:41;;;;;;;2.45;0.57;;;;;22.60;100995.00;;;;5089649;28;20209;-76
2022/05/11 07:02:09;;;;;;;1.58;0.28;;;;;22.60;100995.00;;;;5084708;28;20194;-76
2022/05/11 07:04:37;;;;;;;2.65;0.40;;;;;22.60;100996.00;;;;5083847;28;20190;-77
2022/05/11 07:07:06;;;;;;;0.85;0.47;;;;;22.60;100991.00;;;;5090329;28;20194;-76
2022/05/11 07:09:35;;;;;;;3.03;0.25;;;;;22.70;100992.00;;;;5083888;28;20190;-76
2022/05/11 07:12:20;;;;;;;2.63;0.70;;;;;22.70;100998.00;;;;5087243;28;20218;-76
2022/05/11 07:14:50;;;;;;;2.30;0.52;;;;;22.70;100991.00;;;;5085113;28;20203;-77
2022/05/11 07:17:30;;;;;;;7.30;1.27;;;;;22.70;100992.00;;;;5082988;28;20191;-76
2022/05/11 07:19:59;;;;;;;1.95;0.65;;;;;22.80;100991.00;;;;5089654;28;20206;-76
2022/05/11 07:22:26;;;;;;;1.75;0.47;;;;;22.90;100985.00;;;;5076095;28;20195;-77
2022/05/11 07:24:54;;;;;;;4.13;0.60;;;;;22.90;100981.00;;;;5085551;28;20206;-76
2022/05/11 07:27:22;;;;;;;1.80;0.70;;;;;23.00;100982.00;;;;5086830;28;20222;-77
2022/05/11 07:29:51;;;;;;;2.33;0.35;;;;;23.00;100985.00;;;;5082024;28;20201;-76
2022/05/11 07:32:19;;;;;;;3.00;0.30;;;;;23.10;100994.00;;;;5078789;28;20230;-77
2022/05/11 07:34:46;;;;;;;1.50;0.60;;;;;23.20;100995.00;;;;5086798;28;20226;-77
2022/05/11 07:37:15;;;;;;;1.95;0.60;;;;;23.30;100988.00;;;;5078809;28;20194;-77
2022/05/11 07:39:42;;;;;;;2.50;0.30;;;;;23.40;100990.00;;;;5084875;28;21052;-75
2022/05/11 07:42:10;;;;;;;2.58;0.95;;;;;23.40;100985.00;;;;5088669;28;20201;-76
2022/05/11 07:44:37;;;;;;;1.35;0.32;;;;;23.50;100985.00;;;;5085027;28;20190;-77
2022/05/11 07:47:06;;;;;;;1.92;0.55;;;;;23.60;100983.00;;;;5079834;28;20198;-75
2022/05/11 07:49:33;;;;;;;4.05;0.50;;;;;23.70;100985.00;;;;5088421;28;20230;-75
2022/05/11 07:52:00;;;;;;;2.63;0.77;;;;;23.80;100987.00;;;;5081079;28;20222;-76
2022/05/11 07:54:29;;;;;;;1.17;0.30;;;;;23.80;100985.00;;;;5081891;28;21874;-76
2022/05/11 07:59:56;;;;;;;2.53;0.63;;;;;24.00;100986.00;;;;5084182;28;20252;-76
2022/05/11 08:02:27;;;;;;;0.68;0.38;;;;;24.00;100980.00;;;;5083033;28;20203;-76
2022/05/11 08:04:57;;;;;;;3.25;0.43;;;;;24.10;100977.00;;;;5081600;28;20194;-76
2022/05/11 08:07:26;;;;;;;1.65;0.30;;;;;24.20;100977.00;;;;5086016;28;20205;-76
2022/05/11 08:09:56;;;;;;;2.53;0.28;;;;;24.30;100978.00;;;;5069249;28;20195;-75
2022/05/11 08:12:24;;;;;;;1.77;0.30;;;;;24.40;100982.00;;;;5072727;28;20219;-75
2022/05/11 08:14:52;;;;;;;0.90;0.50;;;;;24.50;100972.00;;;;5073150;28;20210;-75
2022/05/11 08:17:26;;;;;;;1.90;0.50;;;;;24.60;100977.00;;;;5088443;28;20206;-75
2022/05/11 08:19:53;;;;;;;6.03;0.40;;;;;24.70;100977.00;;;;5080586;28;20198;-75
2022/05/11 08:22:21;;;;;;;0.90;0.22;;;;;24.80;100972.00;;;;5081801;28;20194;-75
2022/05/11 08:24:48;;;;;;;2.25;0.35;;;;;24.90;100980.00;;;;5084291;28;20194;-75
2022/05/11 08:27:17;;;;;;;0.80;0.30;;;;;25.00;100980.00;;;;5086905;28;20221;-76
2022/05/11 08:35:16;;;;;;;4.63;0.90;;;;;25.20;100977.00;;;;5069938;28;20194;-74
2022/05/11 08:37:43;;;;;;;1.30;0.50;;;;;25.30;100975.00;;;;5076221;28;20298;-75
2022/05/11 08:40:17;;;;;;;2.63;0.40;;;;;25.30;100976.00;;;;5083894;28;20215;-75
2022/05/11 08:42:45;;;;;;;1.63;0.40;;;;;25.40;100968.00;;;;5084216;28;20253;-74
2022/05/11 08:45:12;;;;;;;1.02;0.20;;;;;25.40;100964.00;;;;5084921;28;20221;-75
2022/05/11 08:47:46;;;;;;;3.15;0.50;;;;;25.40;100970.00;;;;5084281;28;20194;-75
2022/05/11 08:50:17;;;;;;;1.30;0.35;;;;;25.40;100979.00;;;;5084930;28;20241;-75
2022/05/11 08:52:56;;;;;;;0.47;0.20;;;;;25.40;100982.00;;;;5070902;28;20226;-75
2022/05/11 08:55:40;;;;;;;0.60;0.22;;;;;25.40;100983.00;;;;5078169;28;20198;-76
2022/05/11 08:58:12;;;;;;;0.80;0.30;;;;;25.50;100980.00;;;;5079171;28;20198;-77
2022/05/11 09:00:46;;;;;;;1.65;0.20;;;;;25.60;100977.00;;;;5086466;28;20194;-76
2022/05/11 09:03:26;;;;;;;2.03;0.28;;;;;25.70;100981.00;;;;5085351;28;20695;-78
2022/05/11 09:05:56;;;;;;;2.53;0.60;;;;;25.90;100983.00;;;;5082264;28;20198;-77
2022/05/11 09:08:23;;;;;;;0.70;0.28;;;;;25.90;100981.00;;;;5080265;28;20201;-78
2022/05/11 09:10:50;;;;;;;0.68;0.28;;;;;26.00;100985.00;;;;5084704;28;20754;-78
2022/05/11 09:13:20;;;;;;;1.17;0.30;;;;;26.00;100980.00;;;;5078764;28;20233;-78
2022/05/11 09:15:56;;;;;;;2.28;0.38;;;;;26.10;100974.00;;;;5077750;28;20612;-79
2022/05/11 09:18:40;;;;;;;0.90;0.35;;;;;26.10;100969.00;;;;5073483;28;20285;-79
2022/05/11 09:21:21;;;;;;;24.05;1.10;;;;;26.30;100985.00;;;;5080300;28;20201;-80
2022/05/11 09:24:01;;;;;;;1.45;0.35;;;;;26.40;100965.00;;;;5087621;28;20667;-79
2022/05/11 09:26:32;;;;;;;1.75;0.10;;;;;26.50;100971.00;;;;5087264;28;20198;-80
2022/05/11 09:29:21;;;;;;;1.40;0.50;;;;;26.50;100977.00;;;;5084217;28;20316;-79
2022/05/11 09:31:50;;;;;;;0.82;0.35;;;;;26.60;100982.00;;;;5073345;28;20205;-79
2022/05/11 09:34:28;;;;;;;3.25;0.30;;;;;26.60;100974.00;;;;5074117;28;20255;-79
2022/05/11 09:36:59;;;;;;;0.73;0.28;;;;;26.80;100983.00;;;;5085007;28;20199;-78
2022/05/11 09:39:28;;;;;;;1.35;0.20;;;;;26.90;100983.00;;;;5080741;28;20237;-79
2022/05/11 09:42:01;;;;;;;2.63;0.38;;;;;27.00;100989.00;;;;5072882;28;20187;-80
2022/05/11 09:44:41;;;;;;;2.38;0.35;;;;;27.00;100986.00;;;;5084418;28;20217;-79
2022/05/11 09:47:27;;;;;;;1.40;0.45;;;;;27.00;100994.00;;;;5081133;28;20292;-78
2022/05/11 09:49:57;;;;;;;2.45;0.30;;;;;27.10;100993.00;;;;5087948;28;20224;-80
2022/05/11 09:52:34;;;;;;;2.53;0.20;;;;;27.10;100992.00;;;;5081694;28;20202;-78
2022/05/11 09:55:13;;;;;;;3.05;0.70;;;;;27.20;100986.00;;;;5085934;28;20251;-78
2022/05/11 09:57:41;;;;;;;1.42;0.30;;;;;27.30;100986.00;;;;5076961;28;20210;-78
2022/05/11 10:00:21;;;;;;;3.53;0.55;;;;;27.20;100996.00;;;;5069762;28;20194;-79
2022/05/11 10:02:51;;;;;;;1.55;0.43;;;;;27.30;100989.00;;;;5080804;28;20205;-79
2022/05/11 10:05:24;;;;;;;1.85;0.57;;;;;27.30;100989.00;;;;5083222;28;20195;-80
2022/05/11 10:07:58;;;;;;;2.95;0.30;;;;;27.40;100985.00;;;;5075716;28;20853;-78
2022/05/11 10:10:27;;;;;;;4.07;0.47;;;;;27.40;100985.00;;;;5080007;28;20217;-79
2022/05/11 10:13:00;;;;;;;1.27;0.40;;;;;27.50;100985.00;;;;5082912;28;20244;-79
2022/05/11 10:24:19;;;;;;;1.20;0.43;;;;;27.50;100979.00;;;;5082627;28;20275;-79
2022/05/11 10:26:55;;;;;;;3.05;0.70;;;;;27.60;100985.00;;;;5067059;28;20256;-78
2022/05/11 10:29:31;;;;;;;1.85;0.47;;;;;27.60;100987.00;;;;5085671;28;20217;-80
2022/05/11 10:32:08;;;;;;;1.85;0.40;;;;;27.60;100980.00;;;;5076024;28;20668;-81
2022/05/11 10:34:45;;;;;;;2.92;0.40;;;;;27.70;100987.00;;;;5081756;28;20331;-79
2022/05/11 10:37:24;;;;;;;1.08;0.30;;;;;27.80;100989.00;;;;5084126;28;20201;-79
2022/05/11 10:40:06;;;;;;;2.47;0.40;;;;;27.80;100985.00;;;;5076573;28;20486;-78
2022/05/11 10:42:36;;;;;;;2.63;0.98;;;;;27.90;100984.00;;;;5073509;28;20252;-78
2022/05/11 10:45:13;;;;;;;2.17;0.60;;;;;27.90;100979.00;;;;5081895;28;20201;-79
2022/05/11 10:47:55;;;;;;;2.22;0.82;;;;;27.90;100984.00;;;;5078713;28;20195;-78
2022/05/11 10:50:28;;;;;;;2.08;0.50;;;;;28.00;100983.00;;;;5067456;28;20230;-79
2022/05/11 10:53:09;;;;;;;2.72;0.50;;;;;28.10;100977.00;;;;5082366;28;20218;-79
2022/05/11 10:55:47;;;;;;;1.85;0.28;;;;;28.10;100983.00;;;;5086959;28;20194;-77
2022/05/11 10:58:29;;;;;;;2.63;0.60;;;;;28.10;100978.00;;;;5083275;28;20205;-78
2022/05/11 11:01:06;;;;;;;1.63;0.40;;;;;28.10;100986.00;;;;5080297;28;20201;-77
2022/05/11 11:03:59;;;;;;;1.27;0.40;;;;;28.00;100981.00;;;;5071581;28;20632;-80
2022/05/11 11:09:38;;;;;;;1.75;0.40;;;;;28.00;100978.00;;;;5083690;28;20632;-78
2022/05/11 11:12:18;;;;;;;2.63;0.43;;;;;28.00;100975.00;;;;5079177;28;20191;-80
2022/05/11 11:14:50;;;;;;;1.70;0.45;;;;;28.10;100973.00;;;;5070571;28;20222;-79
2022/05/11 11:17:22;;;;;;;4.05;0.82;;;;;28.10;100965.00;;;;5077785;28;20282;-78
2022/05/11 11:19:52;;;;;;;1.65;0.30;;;;;28.20;100966.00;;;;5088694;28;20247;-78
2022/05/11 11:22:20;;;;;;;2.80;0.40;;;;;28.20;100955.00;;;;5090883;28;20205;-78
2022/05/11 11:25:22;;;;;;;1.25;0.30;;;;;28.10;100953.00;;;;5090137;28;20622;-80
2022/05/11 11:28:13;;;;;;;2.53;0.65;;;;;28.10;100955.00;;;;5087233;28;20224;-79
2022/05/11 11:30:42;;;;;;;1.75;0.50;;;;;28.20;100938.00;;;;5082688;28;20273;-77
2022/05/11 11:33:23;;;;;;;1.75;0.30;;;;;28.10;100941.00;;;;5076919;28;20237;-79
2022/05/11 11:35:56;;;;;;;1.95;0.40;;;;;28.10;100946.00;;;;5078310;28;20240;-78
2022/05/11 11:38:28;;;;;;;1.65;0.50;;;;;28.20;100942.00;;;;5077332;28;20246;-79
2022/05/11 11:41:17;;;;;;;2.42;0.68;;;;;28.10;100942.00;;;;5070847;28;20235;-78
2022/05/11 11:43:52;;;;;;;2.10;0.55;;;;;28.20;100934.00;;;;5080634;28;20220;-79
2022/05/11 11:46:34;;;;;;;2.47;0.30;;;;;28.10;100929.00;;;;5087951;28;20209;-78
2022/05/11 11:49:06;;;;;;;0.75;0.38;;;;;28.20;100938.00;;;;5085427;28;20214;-79
2022/05/11 11:51:56;;;;;;;2.65;0.30;;;;;28.10;100930.00;;;;5082253;28;20198;-79
2022/05/11 11:54:46;;;;;;;3.25;0.70;;;;;28.10;100937.00;;;;5089488;28;20222;-79
2022/05/11 11:57:30;;;;;;;0.65;0.32;;;;;28.10;100940.00;;;;5076607;28;21056;-78
2022/05/11 11:59:59;;;;;;;0.85;0.50;;;;;28.20;100925.00;;;;5079610;28;20191;-79
2022/05/11 12:02:29;;;;;;;1.15;0.38;;;;;28.20;100929.00;;;;5072432;28;20286;-78
2022/05/11 12:05:07;;;;;;;1.80;0.63;;;;;28.10;100923.00;;;;5088213;28;20202;-78
2022/05/11 12:16:18;;;;;;;5.68;0.73;;;;;28.10;100926.00;;;;5088977;28;20201;-78
2022/05/11 12:18:46;;;;;;;2.20;0.60;;;;;28.10;100915.00;;;;5089457;28;20205;-77
2022/05/11 12:21:27;;;;;;;1.75;0.50;;;;;28.00;100922.00;;;;5083688;28;20228;-78
2022/05/11 12:23:56;;;;;;;1.92;0.65;;;;;28.10;100914.00;;;;5086613;28;20277;-78
2022/05/11 12:26:26;;;;;;;3.15;0.80;;;;;28.00;100916.00;;;;5083657;28;20198;-80
2022/05/11 12:29:54;;;;;;;1.58;0.40;;;;;27.90;100922.00;;;;5083542;28;20256;-80
2022/05/11 12:31:53;;;;;;;1.83;0.60;;;;;28.00;100914.00;;;;5084091;28;20199;-79
2022/05/11 12:34:23;;;;;;;2.85;0.73;;;;;28.00;100912.00;;;;5082986;28;20647;-80
2022/05/11 12:36:53;;;;;;;2.15;0.80;;;;;28.00;100912.00;;;;5080897;28;20300;-79
2022/05/11 12:39:31;;;;;;;1.15;0.80;;;;;27.90;100922.00;;;;5088348;28;20288;-80
2022/05/11 12:41:58;;;;;;;4.68;1.02;;;;;28.00;100919.00;;;;5089267;28;20202;-80
2022/05/11 12:44:29;;;;;;;1.65;0.70;;;;;27.90;100917.00;;;;5086267;28;20551;-79
2022/05/11 12:46:59;;;;;;;1.65;0.50;;;;;28.00;100909.00;;;;5079524;28;20289;-79
2022/05/11 12:49:28;;;;;;;4.53;0.70;;;;;28.00;100905.00;;;;5086918;28;20221;-80
2022/05/11 12:52:01;;;;;;;2.60;0.65;;;;;28.00;100910.00;;;;5087969;28;20194;-78
2022/05/11 12:54:32;;;;;;;2.83;1.05;;;;;28.00;100916.00;;;;5085096;28;20240;-80
2022/05/11 12:57:02;;;;;;;1.33;0.82;;;;;28.00;100910.00;;;;5090293;28;20194;-80
2022/05/11 12:59:32;;;;;;;2.72;0.63;;;;;28.00;100917.00;;;;5084333;28;20296;-80
2022/05/11 13:02:17;;;;;;;2.15;0.80;;;;;27.90;100896.00;;;;5082180;28;20206;-81
2022/05/11 13:04:53;;;;;;;2.20;0.82;;;;;27.90;100902.00;;;;5085378;28;20267;-79
2022/05/11 13:07:24;;;;;;;2.75;0.88;;;;;27.90;100903.00;;;;5090098;28;20197;-81
2022/05/11 13:09:55;;;;;;;2.78;0.88;;;;;27.90;100901.00;;;;5079866;28;20587;-79
2022/05/11 13:12:23;;;;;;;2.38;1.00;;;;;27.90;100890.00;;;;5091397;28;20202;-80
2022/05/11 13:14:54;;;;;;;2.72;1.00;;;;;27.90;100894.00;;;;5092334;28;20237;-79